Time;durP1;ratioP1;P1;durP2;ratioP2;P2;SDS_P1;SDS_P2;PMS_P1;PMS_P2;Temp;Humidity;BMP_temperature;BMP_pressure;BME280_temperature;BME280_humidity;BME280_pressure;Samples;Min_cycle;Max_cycle;Signal;HPM_P1;HPM_P2
2021/10/23 00:01:19;;;;;;;9.63;8.63;;;10.80;99.90;;;;;;6227229;28;20468;-64
2021/10/23 00:04:23;;;;;;;8.43;7.43;;;10.70;99.90;;;;;;6230616;28;20513;-65
2021/10/23 00:07:26;;;;;;;8.23;7.50;;;10.70;99.90;;;;;;6230314;28;21022;-64
2021/10/23 00:10:29;;;;;;;8.87;7.97;;;10.70;99.90;;;;;;6229893;28;20955;-63
2021/10/23 00:13:32;;;;;;;10.20;9.20;;;10.60;99.90;;;;;;6230638;28;20464;-64
2021/10/23 00:16:37;;;;;;;10.50;9.50;;;10.50;99.90;;;;;;6231189;28;20472;-64
2021/10/23 00:19:40;;;;;;;11.00;10.00;;;10.50;99.90;;;;;;6230145;28;20472;-64
2021/10/23 00:22:43;;;;;;;12.27;11.07;;;10.40;99.90;;;;;;6229608;28;20472;-64
2021/10/23 00:25:46;;;;;;;15.57;12.67;;;10.40;99.90;;;;;;6229653;28;20471;-64
2021/10/23 00:28:49;;;;;;;11.80;10.47;;;10.30;99.90;;;;;;6225822;28;20480;-64
2021/10/23 00:31:55;;;;;;;12.00;10.70;;;10.30;99.90;;;;;;6230417;28;20480;-64
2021/10/23 00:34:59;;;;;;;11.43;10.50;;;10.30;99.90;;;;;;6229805;28;20476;-64
2021/10/23 00:38:02;;;;;;;13.63;11.00;;;10.30;99.90;;;;;;6230256;28;20472;-63
2021/10/23 00:41:05;;;;;;;12.10;9.80;;;10.40;99.90;;;;;;6229833;28;20485;-63
2021/10/23 00:44:28;;;;;;;9.87;8.87;;;10.40;99.90;;;;;;6231349;28;20472;-64
2021/10/23 00:47:33;;;;;;;9.57;8.47;;;10.40;99.90;;;;;;6231325;28;20976;-64
2021/10/23 00:50:37;;;;;;;8.80;7.80;;;10.40;99.90;;;;;;6231042;28;20968;-64
2021/10/23 00:53:41;;;;;;;9.07;8.13;;;10.40;99.90;;;;;;6230978;28;20795;-65
2021/10/23 00:56:44;;;;;;;8.93;8.03;;;10.40;99.90;;;;;;6231004;28;20471;-65
2021/10/23 00:59:47;;;;;;;10.30;8.00;;;10.40;99.90;;;;;;6230503;28;20842;-64
2021/10/23 01:02:52;;;;;;;9.70;8.40;;;10.40;99.90;;;;;;6230994;28;20838;-65
2021/10/23 01:05:56;;;;;;;10.33;8.17;;;10.40;99.90;;;;;;6230446;28;20476;-65
2021/10/23 01:08:59;;;;;;;11.50;9.20;;;10.50;99.90;;;;;;6230696;28;20476;-64
2021/10/23 01:12:06;;;;;;;8.77;7.97;;;10.40;99.90;;;;;;6230193;28;20487;-64
2021/10/23 01:15:18;;;;;;;8.53;7.67;;;10.40;99.90;;;;;;6227877;28;20480;-64
2021/10/23 01:18:22;;;;;;;10.23;9.10;;;10.40;99.90;;;;;;6228978;28;20468;-64
2021/10/23 01:21:27;;;;;;;9.83;7.77;;;10.40;99.90;;;;;;6228811;28;20472;-64
2021/10/23 01:24:31;;;;;;;8.63;7.73;;;10.40;99.90;;;;;;6229128;28;20468;-65
2021/10/23 01:27:34;;;;;;;9.60;7.80;;;10.40;99.90;;;;;;6228894;28;20506;-65
2021/10/23 01:30:37;;;;;;;8.20;7.50;;;10.30;99.90;;;;;;6228530;28;20507;-64
2021/10/23 01:33:40;;;;;;;9.33;8.33;;;10.30;99.90;;;;;;6228405;28;20619;-65
2021/10/23 01:36:48;;;;;;;9.40;8.50;;;10.30;99.90;;;;;;6223860;28;20487;-65
2021/10/23 01:39:51;;;;;;;10.13;9.10;;;10.30;99.90;;;;;;6228787;28;20487;-65
2021/10/23 01:42:54;;;;;;;8.93;7.73;;;10.30;99.90;;;;;;6228313;28;20490;-65
2021/10/23 01:45:58;;;;;;;9.17;8.20;;;10.30;99.90;;;;;;6228026;28;20956;-64
2021/10/23 01:49:02;;;;;;;11.57;8.27;;;10.20;99.90;;;;;;6227706;28;20464;-65
2021/10/23 01:52:06;;;;;;;8.27;7.47;;;10.20;99.90;;;;;;6227184;28;20463;-64
2021/10/23 01:55:10;;;;;;;8.10;7.30;;;10.20;99.90;;;;;;6226354;28;20770;-65
2021/10/23 01:58:14;;;;;;;7.90;7.30;;;10.20;99.90;;;;;;6226322;28;20440;-64
2021/10/23 02:01:17;;;;;;;8.90;8.10;;;10.10;99.90;;;;;;6226350;28;20439;-65
2021/10/23 02:04:20;;;;;;;6.83;6.23;;;10.10;99.90;;;;;;6227082;28;20467;-64
2021/10/23 02:07:25;;;;;;;7.67;7.03;;;10.00;99.90;;;;;;6226205;28;20468;-64
2021/10/23 02:10:28;;;;;;;7.13;6.53;;;9.90;99.90;;;;;;6226261;28;20464;-64
2021/10/23 02:13:31;;;;;;;7.50;6.80;;;9.90;99.90;;;;;;6226979;28;20463;-65
2021/10/23 02:16:34;;;;;;;6.60;6.00;;;9.80;99.90;;;;;;6226811;28;20467;-65
2021/10/23 02:19:37;;;;;;;6.70;5.83;;;9.70;99.90;;;;;;6227403;28;20467;-65
2021/10/23 02:22:42;;;;;;;7.03;6.33;;;9.60;99.90;;;;;;6227909;28;20464;-65
2021/10/23 02:25:45;;;;;;;6.90;6.23;;;9.60;99.90;;;;;;6227087;28;20471;-65
2021/10/23 02:28:48;;;;;;;7.00;6.30;;;9.50;99.90;;;;;;6226439;28;20483;-65
2021/10/23 02:31:51;;;;;;;8.40;7.00;;;9.40;99.90;;;;;;6226068;28;20992;-65
2021/10/23 02:34:55;;;;;;;9.13;6.77;;;9.40;99.90;;;;;;6225805;28;20823;-65
2021/10/23 02:37:59;;;;;;;7.30;6.60;;;9.40;99.90;;;;;;6216745;28;20998;-65
2021/10/23 02:41:02;;;;;;;11.50;8.93;;;9.30;99.90;;;;;;6226100;28;20483;-65
2021/10/23 02:44:06;;;;;;;9.70;8.70;;;9.30;99.90;;;;;;6225635;28;20480;-65
2021/10/23 02:47:09;;;;;;;8.37;7.57;;;9.30;99.90;;;;;;6226142;28;20482;-65
2021/10/23 02:50:12;;;;;;;10.00;8.07;;;9.20;99.90;;;;;;6225917;28;20472;-64
2021/10/23 02:53:17;;;;;;;8.40;7.27;;;9.20;99.90;;;;;;6225469;28;20484;-65
2021/10/23 02:56:20;;;;;;;7.30;6.57;;;9.10;99.90;;;;;;6225981;28;20468;-65
2021/10/23 02:59:23;;;;;;;6.40;5.80;;;9.10;99.90;;;;;;6225498;28;20480;-65
2021/10/23 03:02:26;;;;;;;6.70;6.10;;;9.10;99.90;;;;;;6226117;28;20501;-65
2021/10/23 03:05:29;;;;;;;5.90;5.40;;;9.10;99.90;;;;;;6225557;28;20487;-65
2021/10/23 03:08:34;;;;;;;7.00;6.30;;;9.00;99.90;;;;;;6225879;28;20479;-64
2021/10/23 03:11:38;;;;;;;6.20;5.60;;;9.00;99.90;;;;;;6225592;28;21030;-64
2021/10/23 03:14:41;;;;;;;6.93;6.27;;;8.90;99.90;;;;;;6225486;28;20559;-64
2021/10/23 03:17:44;;;;;;;4.90;4.50;;;9.00;99.90;;;;;;6225753;28;20482;-64
2021/10/23 03:20:47;;;;;;;5.93;4.60;;;8.90;99.90;;;;;;6225015;28;20480;-65
2021/10/23 03:23:52;;;;;;;5.80;5.00;;;8.90;99.90;;;;;;6226190;28;20487;-65
2021/10/23 03:26:55;;;;;;;4.80;4.33;;;8.90;99.90;;;;;;6225259;28;20467;-65
2021/10/23 03:29:58;;;;;;;5.57;4.30;;;8.90;99.90;;;;;;6225533;28;20502;-65
2021/10/23 03:33:01;;;;;;;5.00;4.60;;;8.80;99.90;;;;;;6225314;28;20476;-65
2021/10/23 03:36:05;;;;;;;4.50;4.10;;;8.80;99.90;;;;;;6226084;28;20943;-65
2021/10/23 03:39:09;;;;;;;3.90;3.60;;;8.80;99.90;;;;;;6229906;28;20476;-65
2021/10/23 03:42:12;;;;;;;6.23;3.27;;;8.70;99.90;;;;;;6225701;28;20522;-65
2021/10/23 03:45:15;;;;;;;3.43;3.13;;;8.70;99.90;;;;;;6229742;28;20471;-65
2021/10/23 03:48:19;;;;;;;3.67;3.20;;;8.70;99.90;;;;;;6230075;28;20511;-64
2021/10/23 03:51:22;;;;;;;4.60;3.70;;;8.70;99.90;;;;;;6229998;28;20467;-64
2021/10/23 03:54:26;;;;;;;3.70;3.40;;;8.60;99.90;;;;;;6229281;28;20543;-64
2021/10/23 03:57:29;;;;;;;3.63;3.03;;;8.50;99.90;;;;;;6229485;28;20482;-64
2021/10/23 04:00:33;;;;;;;2.83;2.40;;;8.50;99.90;;;;;;6229557;28;20491;-65
2021/10/23 04:03:36;;;;;;;3.00;2.50;;;8.50;99.90;;;;;;6229754;28;20467;-64
2021/10/23 04:06:39;;;;;;;3.20;3.00;;;8.50;99.90;;;;;;6229781;28;20475;-64
2021/10/23 04:09:43;;;;;;;4.70;4.20;;;8.50;99.90;;;;;;6229513;28;20818;-64
2021/10/23 04:12:47;;;;;;;3.10;2.80;;;8.40;99.90;;;;;;6230008;28;20479;-64
2021/10/23 04:15:52;;;;;;;2.73;2.53;;;8.40;99.90;;;;;;6229458;28;20782;-65
2021/10/23 04:18:55;;;;;;;3.87;3.40;;;8.40;99.90;;;;;;6229546;28;20484;-64
2021/10/23 04:21:59;;;;;;;6.50;2.80;;;8.40;99.90;;;;;;6229401;28;20955;-64
2021/10/23 04:25:03;;;;;;;5.77;2.80;;;8.30;99.90;;;;;;6228443;28;20817;-65
2021/10/23 04:28:06;;;;;;;3.17;2.93;;;8.30;99.90;;;;;;6228969;28;20455;-64
2021/10/23 04:31:10;;;;;;;2.50;2.30;;;8.30;99.90;;;;;;6229294;28;20448;-66
2021/10/23 04:34:13;;;;;;;3.00;2.70;;;8.30;99.90;;;;;;6228343;28;20531;-63
2021/10/23 04:37:16;;;;;;;2.83;2.53;;;8.30;99.90;;;;;;6228949;28;20494;-64
2021/10/23 04:40:20;;;;;;;3.63;3.00;;;8.20;99.90;;;;;;6228598;28;20477;-64
2021/10/23 04:43:23;;;;;;;3.03;2.47;;;8.20;99.90;;;;;;6224343;28;20467;-64
2021/10/23 04:46:26;;;;;;;3.90;3.30;;;8.20;99.90;;;;;;6228812;28;20490;-64
2021/10/23 04:49:30;;;;;;;2.27;2.07;;;8.20;99.90;;;;;;6227437;28;20845;-65
2021/10/23 04:52:33;;;;;;;2.03;1.93;;;8.10;99.90;;;;;;6228758;28;20464;-64
2021/10/23 04:55:37;;;;;;;5.30;2.60;;;8.10;99.90;;;;;;6228587;28;20502;-63
2021/10/23 04:58:40;;;;;;;2.27;2.03;;;8.00;99.90;;;;;;6228131;28;20509;-64
2021/10/23 05:01:44;;;;;;;2.07;1.93;;;8.00;99.90;;;;;;6228589;28;20471;-63
2021/10/23 05:04:47;;;;;;;2.87;1.67;;;8.00;99.90;;;;;;6228145;28;21009;-66
2021/10/23 05:07:50;;;;;;;2.10;1.83;;;8.00;99.90;;;;;;6228250;28;20476;-63
2021/10/23 05:10:55;;;;;;;2.27;1.90;;;7.90;99.90;;;;;;6227939;28;20479;-64
2021/10/23 05:13:58;;;;;;;1.80;1.70;;;7.90;99.90;;;;;;6227689;28;20982;-63
2021/10/23 05:17:01;;;;;;;2.27;1.80;;;7.90;99.90;;;;;;6228288;28;20480;-65
2021/10/23 05:20:06;;;;;;;1.90;1.73;;;7.90;99.90;;;;;;6227436;28;20968;-65
2021/10/23 05:23:09;;;;;;;2.30;2.10;;;7.90;99.90;;;;;;6227869;28;20479;-65
2021/10/23 05:26:14;;;;;;;4.30;2.47;;;7.90;99.90;;;;;;6227875;28;20471;-66
2021/10/23 05:29:17;;;;;;;4.63;2.20;;;7.90;99.90;;;;;;6227435;28;20468;-66
2021/10/23 05:32:20;;;;;;;3.30;2.77;;;7.90;99.90;;;;;;6227825;28;20491;-65
2021/10/23 05:35:24;;;;;;;2.63;2.27;;;7.80;99.90;;;;;;6227421;28;20792;-64
2021/10/23 05:38:27;;;;;;;5.80;3.10;;;7.80;99.90;;;;;;6227181;28;20484;-65
2021/10/23 05:41:31;;;;;;;3.30;3.00;;;7.80;99.90;;;;;;6227437;28;20554;-66
2021/10/23 05:44:34;;;;;;;6.03;3.00;;;7.80;99.90;;;;;;6227072;28;20483;-66
2021/10/23 05:47:38;;;;;;;3.20;2.90;;;7.80;99.90;;;;;;6226608;28;20978;-65
2021/10/23 05:50:41;;;;;;;5.77;3.13;;;7.80;99.90;;;;;;6217178;28;20546;-65
2021/10/23 05:53:44;;;;;;;3.53;3.23;;;7.90;99.90;;;;;;6226707;28;20473;-65
2021/10/23 05:56:49;;;;;;;4.70;3.67;;;7.90;99.90;;;;;;6226861;28;20476;-65
2021/10/23 05:59:52;;;;;;;3.43;3.03;;;7.90;99.90;;;;;;6226181;28;20484;-65
2021/10/23 06:02:57;;;;;;;4.80;3.40;;;7.90;99.90;;;;;;6226879;28;20487;-65
2021/10/23 06:06:00;;;;;;;5.70;3.83;;;7.90;99.90;;;;;;6226598;28;20952;-65
2021/10/23 06:09:05;;;;;;;5.87;5.27;;;8.00;99.90;;;;;;6226472;28;20487;-65
2021/10/23 06:12:10;;;;;;;5.60;5.00;;;8.10;99.90;;;;;;6226255;28;20480;-63
2021/10/23 06:15:13;;;;;;;5.43;4.70;;;8.10;99.90;;;;;;6226431;28;20467;-64
2021/10/23 06:18:16;;;;;;;7.97;6.00;;;8.10;99.90;;;;;;6225782;28;20534;-64
2021/10/23 06:21:20;;;;;;;6.27;4.90;;;8.10;99.90;;;;;;6226554;28;20530;-64
2021/10/23 06:24:23;;;;;;;5.00;4.50;;;8.10;99.90;;;;;;6226269;28;20478;-64
2021/10/23 06:27:27;;;;;;;6.63;4.00;;;8.00;99.90;;;;;;6226235;28;20472;-64
2021/10/23 06:30:31;;;;;;;7.00;4.20;;;8.10;99.90;;;;;;6225840;28;20474;-64
2021/10/23 06:33:34;;;;;;;8.20;4.50;;;8.00;99.90;;;;;;6226305;28;20464;-64
2021/10/23 06:36:37;;;;;;;6.97;5.20;;;8.00;99.90;;;;;;6226142;28;20967;-64
2021/10/23 06:39:41;;;;;;;7.30;4.33;;;8.10;99.90;;;;;;6226242;28;20479;-64
2021/10/23 06:42:45;;;;;;;4.60;3.77;;;8.10;99.90;;;;;;6226325;28;20478;-64
2021/10/23 06:45:49;;;;;;;4.70;4.30;;;8.20;99.90;;;;;;6225861;28;20471;-64
2021/10/23 06:48:52;;;;;;;5.57;4.23;;;8.10;99.90;;;;;;6225527;28;20514;-64
2021/10/23 06:51:55;;;;;;;6.60;5.10;;;8.20;99.90;;;;;;6225844;28;20476;-64
2021/10/23 06:54:58;;;;;;;6.10;4.97;;;8.20;99.90;;;;;;6217161;28;20479;-63
2021/10/23 06:58:03;;;;;;;5.47;4.97;;;8.30;99.90;;;;;;6223178;28;20491;-63
2021/10/23 07:01:07;;;;;;;6.83;5.20;;;8.40;99.90;;;;;;6225593;28;21118;-63
2021/10/23 07:04:11;;;;;;;7.43;6.70;;;8.40;99.90;;;;;;6226645;28;20454;-64
2021/10/23 07:07:14;;;;;;;4.93;4.47;;;8.50;99.90;;;;;;6226831;28;20444;-63
2021/10/23 07:10:18;;;;;;;5.80;5.07;;;8.40;99.90;;;;;;6226194;28;20478;-63
2021/10/23 07:13:24;;;;;;;7.80;5.97;;;8.40;99.90;;;;;;6230475;28;20448;-63
2021/10/23 07:16:27;;;;;;;8.73;4.97;;;8.40;99.90;;;;;;6230322;28;20471;-63
2021/10/23 07:19:30;;;;;;;5.83;5.07;;;8.40;99.90;;;;;;6230872;28;20568;-63
2021/10/23 07:22:34;;;;;;;4.83;4.33;;;8.50;99.90;;;;;;6230350;28;20471;-63
2021/10/23 07:25:37;;;;;;;5.80;5.20;;;8.60;99.90;;;;;;6230656;28;20466;-64
2021/10/23 07:28:42;;;;;;;5.13;4.63;;;8.60;99.90;;;;;;6229876;28;20475;-64
2021/10/23 07:31:45;;;;;;;5.90;4.97;;;8.70;99.90;;;;;;6230283;28;20543;-64
2021/10/23 07:34:48;;;;;;;5.20;4.80;;;8.80;99.90;;;;;;6230611;28;20475;-64
2021/10/23 07:37:51;;;;;;;6.10;5.40;;;9.00;99.90;;;;;;6227338;28;20464;-64
2021/10/23 07:40:55;;;;;;;5.90;5.40;;;9.10;99.90;;;;;;6221192;28;20792;-66
2021/10/23 07:43:59;;;;;;;5.90;5.40;;;9.20;99.90;;;;;;6229549;28;20472;-66
2021/10/23 07:47:03;;;;;;;6.50;5.57;;;9.40;99.90;;;;;;6229504;28;20952;-66
2021/10/23 07:50:06;;;;;;;6.50;4.87;;;9.60;99.90;;;;;;6229218;28;20552;-66
2021/10/23 07:53:10;;;;;;;22.60;6.60;;;9.70;99.90;;;;;;6229080;28;20798;-66
2021/10/23 07:56:13;;;;;;;6.73;5.53;;;9.80;99.90;;;;;;6221644;28;20482;-67
2021/10/23 07:59:18;;;;;;;6.87;5.20;;;9.90;99.90;;;;;;6229095;28;20494;-66
2021/10/23 08:02:21;;;;;;;4.50;4.10;;;10.00;99.90;;;;;;6229133;28;20478;-66
2021/10/23 08:05:26;;;;;;;7.67;5.30;;;10.20;99.90;;;;;;6229438;28;20554;-64
2021/10/23 08:08:29;;;;;;;6.70;6.00;;;10.20;99.90;;;;;;6228919;28;20475;-64
2021/10/23 08:11:32;;;;;;;5.93;5.37;;;10.40;99.90;;;;;;6226020;28;20472;-64
2021/10/23 08:14:37;;;;;;;8.53;5.53;;;10.50;99.90;;;;;;6207312;28;20486;-65
2021/10/23 08:17:41;;;;;;;6.07;5.47;;;10.60;99.90;;;;;;6204753;28;20488;-65
2021/10/23 08:20:44;;;;;;;4.93;4.40;;;10.90;99.90;;;;;;6204393;28;21003;-64
2021/10/23 08:23:47;;;;;;;4.20;3.70;;;11.30;99.90;;;;;;6203829;28;20472;-64
2021/10/23 08:26:50;;;;;;;7.07;3.97;;;11.70;97.80;;;;;;6204051;28;20839;-65
2021/10/23 08:29:55;;;;;;;6.57;4.30;;;12.20;96.30;;;;;;6227046;28;20497;-66
2021/10/23 08:32:58;;;;;;;5.80;4.13;;;13.00;94.70;;;;;;6227851;28;20965;-67
2021/10/23 08:36:02;;;;;;;5.20;3.30;;;16.20;86.00;;;;;;6228518;28;20476;-67
2021/10/23 08:39:05;;;;;;;4.47;3.00;;;20.00;69.80;;;;;;6227440;28;20494;-69
2021/10/23 08:42:10;;;;;;;4.00;3.60;;;24.40;53.50;;;;;;6227822;28;20254;-69
2021/10/23 08:45:16;;;;;;;4.73;3.30;;;27.80;41.20;;;;;;6227953;28;20323;-66
2021/10/23 08:48:20;;;;;;;3.47;3.17;;;30.40;33.70;;;;;;6228253;28;20236;-66
2021/10/23 08:51:25;;;;;;;3.92;3.63;;;32.40;30.00;;;;;;6227796;28;20228;-65
2021/10/23 08:54:30;;;;;;;4.30;3.17;;;34.10;27.10;;;;;;6227854;28;20243;-64
2021/10/23 08:57:33;;;;;;;4.82;3.72;;;34.90;25.10;;;;;;6227425;28;20232;-65
2021/10/23 09:00:38;;;;;;;4.03;2.75;;;35.10;24.40;;;;;;6227426;28;20307;-65
2021/10/23 09:03:42;;;;;;;3.40;3.10;;;35.60;23.60;;;;;;6227960;28;20221;-65
2021/10/23 09:06:46;;;;;;;3.97;3.30;;;36.90;22.80;;;;;;6227402;28;20703;-66
2021/10/23 09:09:51;;;;;;;3.95;3.55;;;37.70;22.30;;;;;;6227241;28;20254;-65
2021/10/23 09:13:05;;;;;;;4.45;2.47;;;35.60;22.60;;;;;;6227159;28;20224;-67
2021/10/23 09:16:17;;;;;;;4.30;3.03;;;31.70;23.90;;;;;;6227293;28;20641;-68
2021/10/23 09:19:21;;;;;;;4.27;3.23;;;27.90;27.70;;;;;;6227456;28;20236;-68
2021/10/23 09:22:28;;;;;;;3.47;3.17;;;26.20;30.90;;;;;;6227977;28;20235;-67
2021/10/23 09:25:35;;;;;;;2.93;2.73;;;26.70;31.30;;;;;;6227711;28;20232;-66
2021/10/23 09:28:38;;;;;;;3.57;2.57;;;29.20;29.00;;;;;;6227295;28;20239;-70
2021/10/23 09:31:47;;;;;;;3.88;3.25;;;31.90;26.80;;;;;;6226933;28;20648;-69
2021/10/23 09:34:51;;;;;;;2.92;2.50;;;34.00;24.70;;;;;;6226124;28;20331;-66
2021/10/23 09:37:56;;;;;;;3.60;2.22;;;36.60;23.10;;;;;;6226850;28;20294;-66
2021/10/23 09:41:11;;;;;;;2.35;1.98;;;37.30;21.40;;;;;;6226355;28;20672;-67
2021/10/23 09:44:15;;;;;;;1.70;1.50;;;38.70;20.20;;;;;;6226266;28;20244;-66
2021/10/23 09:47:19;;;;;;;2.35;1.67;;;39.40;19.70;;;;;;6225162;28;20297;-65
2021/10/23 09:50:23;;;;;;;2.50;1.55;;;38.20;19.50;;;;;;6224866;28;20232;-67
2021/10/23 09:53:35;;;;;;;4.63;2.40;;;39.40;19.40;;;;;;6224092;28;20282;-67
2021/10/23 09:56:39;;;;;;;3.38;1.58;;;40.90;18.30;;;;;;6224334;28;20510;-66
2021/10/23 09:59:43;;;;;;;1.98;1.52;;;41.30;17.30;;;;;;6223969;28;20256;-66
2021/10/23 10:02:47;;;;;;;2.70;1.55;;;41.10;18.10;;;;;;6224359;28;20252;-66
2021/10/23 10:05:54;;;;;;;2.55;1.80;;;41.00;17.50;;;;;;6216150;28;20665;-66
2021/10/23 10:08:57;;;;;;;1.67;1.38;;;39.20;18.70;;;;;;6225116;28;20877;-66
2021/10/23 10:12:02;;;;;;;2.08;1.73;;;39.10;18.30;;;;;;6225521;28;20313;-66
2021/10/23 10:15:08;;;;;;;2.70;1.73;;;40.00;18.80;;;;;;6226359;28;20232;-67
2021/10/23 10:18:15;;;;;;;2.25;2.05;;;40.60;18.10;;;;;;6225828;28;20574;-67
2021/10/23 10:21:19;;;;;;;3.95;1.88;;;41.50;17.90;;;;;;6226277;28;20235;-67
2021/10/23 10:24:25;;;;;;;3.45;2.22;;;40.90;17.90;;;;;;6226216;28;20239;-67
2021/10/23 10:27:44;;;;;;;2.22;1.63;;;40.20;17.70;;;;;;6225784;28;20696;-66
2021/10/23 10:30:53;;;;;;;3.30;1.80;;;40.80;17.70;;;;;;6226489;28;20334;-66
2021/10/23 10:33:59;;;;;;;2.40;1.95;;;40.70;17.10;;;;;;6226625;28;20236;-66
2021/10/23 10:37:40;;;;;;;2.72;1.95;;;39.20;18.10;;;;;;6226207;28;20217;-66
2021/10/23 10:44:17;;;;;;;3.72;2.33;;;38.70;18.10;;;;;;6225989;28;20243;-66
2021/10/23 10:47:20;;;;;;;3.55;2.00;;;39.40;18.10;;;;;;6225636;28;20240;-66
2021/10/23 10:50:36;;;;;;;3.35;2.50;;;40.20;18.00;;;;;;6225350;28;20686;-66
2021/10/23 10:53:41;;;;;;;2.83;2.50;;;40.60;17.30;;;;;;6225793;28;20239;-66
2021/10/23 10:56:48;;;;;;;2.70;2.50;;;39.30;17.90;;;;;;6225626;28;20551;-66
2021/10/23 10:59:54;;;;;;;2.55;2.35;;;38.60;18.60;;;;;;6225469;28;20525;-66
2021/10/23 11:02:57;;;;;;;2.17;1.88;;;39.10;18.60;;;;;;6225503;28;20569;-66
2021/10/23 11:06:53;;;;;;;2.25;2.08;;;40.40;17.40;;;;;;6225408;28;20232;-66
2021/10/23 11:09:56;;;;;;;3.45;3.15;;;38.90;18.30;;;;;;6225801;28;20223;-66
2021/10/23 11:13:24;;;;;;;2.83;2.63;;;39.20;18.20;;;;;;6225665;28;20224;-66
2021/10/23 11:16:27;;;;;;;4.25;2.42;;;39.20;17.90;;;;;;6225232;28;20235;-66
2021/10/23 11:19:32;;;;;;;2.55;2.35;;;37.00;19.20;;;;;;6224784;28;20569;-66
2021/10/23 11:22:37;;;;;;;3.17;2.90;;;37.10;19.90;;;;;;6225683;28;20235;-66
2021/10/23 11:25:41;;;;;;;5.85;3.10;;;38.00;19.60;;;;;;6225415;28;20717;-67
2021/10/23 11:28:44;;;;;;;3.95;3.60;;;39.00;19.20;;;;;;6225428;28;20236;-67
2021/10/23 11:31:49;;;;;;;3.78;3.47;;;38.00;20.00;;;;;;6225356;28;20262;-66
2021/10/23 11:34:53;;;;;;;4.43;3.58;;;39.20;19.40;;;;;;6224934;28;20665;-67
2021/10/23 11:37:57;;;;;;;3.92;3.63;;;40.00;18.90;;;;;;6224752;28;20565;-66
2021/10/23 11:41:03;;;;;;;3.47;3.10;;;41.10;18.20;;;;;;6224736;28;20236;-66
2021/10/23 11:44:07;;;;;;;3.45;3.20;;;40.60;17.80;;;;;;6224573;28;20228;-67
2021/10/23 11:47:16;;;;;;;3.45;3.15;;;40.60;17.90;;;;;;6225084;28;20237;-68
2021/10/23 11:50:24;;;;;;;3.53;3.22;;;41.60;17.60;;;;;;6224964;28;20228;-67
2021/10/23 11:53:33;;;;;;;3.92;3.60;;;40.70;17.30;;;;;;6225841;28;20565;-69
2021/10/23 11:56:39;;;;;;;4.10;3.53;;;39.00;18.00;;;;;;6225622;28;20224;-67
2021/10/23 11:59:42;;;;;;;4.57;4.18;;;38.30;18.70;;;;;;6229049;28;20362;-67
2021/10/23 12:02:48;;;;;;;6.95;4.45;;;36.90;20.00;;;;;;6230004;28;20580;-67
2021/10/23 12:05:51;;;;;;;4.22;3.92;;;37.60;20.20;;;;;;6229518;28;20228;-67
2021/10/23 12:08:59;;;;;;;5.75;5.10;;;39.00;19.50;;;;;;6229327;28;20578;-67
2021/10/23 12:12:04;;;;;;;5.15;4.65;;;40.00;19.20;;;;;;6224899;28;20242;-67
2021/10/23 12:15:16;;;;;;;4.32;3.92;;;39.10;19.80;;;;;;6229303;28;20240;-67
2021/10/23 12:18:27;;;;;;;4.63;3.90;;;38.70;20.10;;;;;;6229038;28;20660;-67
2021/10/23 12:21:37;;;;;;;4.72;4.22;;;39.20;19.70;;;;;;6229015;28;20232;-67
2021/10/23 12:24:44;;;;;;;3.88;3.47;;;37.90;19.90;;;;;;6228880;28;20228;-67
2021/10/23 12:27:59;;;;;;;4.82;3.78;;;38.40;19.90;;;;;;6228910;28;20239;-67
2021/10/23 12:31:03;;;;;;;4.10;3.70;;;38.40;19.90;;;;;;6228433;28;20228;-67
2021/10/23 12:34:07;;;;;;;3.47;3.17;;;36.20;21.20;;;;;;6228345;28;20261;-67
2021/10/23 12:37:10;;;;;;;7.38;4.68;;;36.20;21.70;;;;;;6229187;28;20215;-67
2021/10/23 12:40:21;;;;;;;4.45;4.13;;;36.10;22.60;;;;;;6228977;28;20232;-67
2021/10/23 12:43:25;;;;;;;4.13;3.30;;;35.10;22.40;;;;;;6229011;28;20252;-67
2021/10/23 12:46:28;;;;;;;5.63;3.20;;;35.30;22.30;;;;;;6228306;28;20224;-67
2021/10/23 12:49:32;;;;;;;5.20;3.08;;;36.20;21.80;;;;;;6228032;28;20370;-67
2021/10/23 12:52:36;;;;;;;3.00;2.75;;;36.30;21.30;;;;;;6228506;28;20234;-67
2021/10/23 12:55:41;;;;;;;3.40;2.70;;;36.30;21.20;;;;;;6228629;28;20238;-67
2021/10/23 12:58:44;;;;;;;3.38;2.85;;;35.80;20.60;;;;;;6228797;28;20236;-67
2021/10/23 13:01:48;;;;;;;2.60;2.35;;;34.90;21.10;;;;;;6230289;28;20224;-67
2021/10/23 13:04:51;;;;;;;3.38;2.35;;;33.50;22.00;;;;;;6231945;28;20234;-67
2021/10/23 13:07:54;;;;;;;2.30;1.98;;;34.30;21.30;;;;;;6230190;28;20228;-67
2021/10/23 13:10:59;;;;;;;2.40;2.20;;;33.80;21.40;;;;;;6226391;28;20228;-67
2021/10/23 13:14:02;;;;;;;1.70;1.60;;;34.40;20.80;;;;;;6226675;28;20232;-67
2021/10/23 13:17:05;;;;;;;3.00;2.28;;;34.10;20.30;;;;;;6217395;28;20691;-67
2021/10/23 13:20:10;;;;;;;3.10;2.33;;;33.80;20.90;;;;;;6226389;28;20232;-67
2021/10/23 13:23:13;;;;;;;2.13;1.88;;;33.30;21.10;;;;;;6227045;28;20239;-67
2021/10/23 13:26:18;;;;;;;2.72;1.75;;;33.70;21.20;;;;;;6226778;28;20239;-67
2021/10/23 13:29:21;;;;;;;2.92;2.38;;;33.30;21.50;;;;;;6226810;28;20664;-67
2021/10/23 13:32:24;;;;;;;4.40;2.72;;;34.10;20.80;;;;;;6227141;28;20232;-67
2021/10/23 13:35:27;;;;;;;2.50;2.30;;;34.90;20.30;;;;;;6226200;28;20724;-67
2021/10/23 13:38:30;;;;;;;3.00;2.30;;;33.60;21.10;;;;;;6226791;28;20228;-67
2021/10/23 13:41:36;;;;;;;2.60;1.60;;;31.90;21.80;;;;;;6225710;28;20273;-66
2021/10/23 13:44:39;;;;;;;4.93;2.60;;;29.10;23.70;;;;;;6226437;28;20228;-66
2021/10/23 13:47:42;;;;;;;2.30;2.10;;;26.90;25.60;;;;;;6226212;28;20247;-66
2021/10/23 13:50:45;;;;;;;6.73;1.80;;;25.60;27.30;;;;;;6225921;28;20236;-66
2021/10/23 13:53:48;;;;;;;3.13;1.70;;;24.40;29.00;;;;;;6225956;28;20241;-66
2021/10/23 13:56:53;;;;;;;2.20;1.73;;;23.40;30.20;;;;;;6226294;28;20239;-66
2021/10/23 13:59:56;;;;;;;2.37;1.90;;;22.20;31.60;;;;;;6188219;28;1107644;-65
2021/10/23 14:02:59;;;;;;;3.80;1.67;;;20.80;32.70;;;;;;6226969;28;20245;-65
2021/10/23 14:06:03;;;;;;;2.40;2.07;;;19.60;34.80;;;;;;6226730;28;20243;-65
2021/10/23 14:09:06;;;;;;;5.10;2.10;;;18.70;37.10;;;;;;6226556;28;20595;-65
2021/10/23 14:12:11;;;;;;;3.67;2.00;;;18.20;38.20;;;;;;6227284;28;20228;-65
2021/10/23 14:15:14;;;;;;;3.73;1.50;;;17.80;39.60;;;;;;6227338;28;20472;-65
2021/10/23 14:18:17;;;;;;;2.43;1.63;;;17.50;40.20;;;;;;6222618;28;20815;-65
2021/10/23 14:21:20;;;;;;;2.50;1.57;;;17.20;40.10;;;;;;6226639;28;20494;-65
2021/10/23 14:24:26;;;;;;;1.53;1.37;;;16.80;40.50;;;;;;6227127;28;20483;-65
2021/10/23 14:27:44;;;;;;;1.97;1.80;;;16.40;40.90;;;;;;6226398;28;20479;-65
2021/10/23 14:30:47;;;;;;;1.70;1.60;;;16.30;40.70;;;;;;6226457;28;20472;-65
2021/10/23 14:33:52;;;;;;;1.80;1.63;;;16.00;41.50;;;;;;6226868;28;20479;-65
2021/10/23 14:36:55;;;;;;;1.97;1.10;;;15.70;42.00;;;;;;6226358;28;20463;-65
2021/10/23 14:39:58;;;;;;;2.93;1.93;;;15.60;41.70;;;;;;6225849;28;20487;-65
2021/10/23 14:43:03;;;;;;;2.00;1.43;;;15.50;42.30;;;;;;6226586;28;20476;-65
2021/10/23 14:46:07;;;;;;;1.77;1.20;;;15.60;42.10;;;;;;6226003;28;20459;-65
2021/10/23 14:49:10;;;;;;;1.97;1.77;;;15.60;42.40;;;;;;6225762;28;20780;-65
2021/10/23 14:52:13;;;;;;;2.97;1.53;;;15.60;42.50;;;;;;6226096;28;20455;-65
2021/10/23 14:55:17;;;;;;;2.10;1.70;;;15.50;42.80;;;;;;6226656;28;20454;-65
2021/10/23 14:58:21;;;;;;;4.20;1.40;;;15.40;43.70;;;;;;6225756;28;20459;-65
2021/10/23 15:01:24;;;;;;;3.30;1.70;;;15.40;44.00;;;;;;6226052;28;20823;-66
2021/10/23 15:04:28;;;;;;;2.30;1.77;;;15.40;44.40;;;;;;6225584;28;20464;-66
2021/10/23 15:07:31;;;;;;;2.57;1.70;;;15.30;45.10;;;;;;6226355;28;20793;-66
2021/10/23 15:10:34;;;;;;;3.03;1.60;;;15.20;43.80;;;;;;6225669;28;20900;-66
2021/10/23 15:13:38;;;;;;;3.83;1.97;;;15.10;43.70;;;;;;6226342;28;20463;-66
2021/10/23 15:16:42;;;;;;;2.60;1.37;;;15.00;43.60;;;;;;6227025;28;20468;-66
2021/10/23 15:19:45;;;;;;;2.50;1.77;;;14.90;43.50;;;;;;6221641;28;20479;-66
2021/10/23 15:22:49;;;;;;;2.63;1.27;;;14.80;43.30;;;;;;6227380;28;20486;-66
2021/10/23 15:25:53;;;;;;;1.60;1.47;;;14.70;43.90;;;;;;6227068;28;20491;-66
2021/10/23 15:28:57;;;;;;;2.00;1.80;;;14.70;44.40;;;;;;6226078;28;20488;-66
2021/10/23 15:32:00;;;;;;;3.37;1.57;;;14.60;45.10;;;;;;6225993;28;20471;-66
2021/10/23 15:35:04;;;;;;;4.97;4.20;;;14.60;45.60;;;;;;6220662;28;20483;-66
2021/10/23 15:38:08;;;;;;;3.70;1.67;;;14.60;46.20;;;;;;6230109;28;20475;-66
2021/10/23 15:41:29;;;;;;;1.87;1.70;;;14.40;47.50;;;;;;6230229;28;20476;-66
2021/10/23 15:44:34;;;;;;;4.40;1.80;;;14.30;48.00;;;;;;6230004;28;20471;-66
2021/10/23 15:47:37;;;;;;;3.10;1.60;;;14.20;48.20;;;;;;6230138;28;20478;-66
2021/10/23 15:50:40;;;;;;;2.47;1.90;;;14.10;48.70;;;;;;6230245;28;20475;-66
2021/10/23 15:53:43;;;;;;;2.40;1.90;;;14.10;49.10;;;;;;6230091;28;20467;-66
2021/10/23 15:56:47;;;;;;;3.97;1.80;;;14.00;49.40;;;;;;6229532;28;21002;-66
2021/10/23 15:59:51;;;;;;;2.70;2.27;;;14.00;50.00;;;;;;6229399;28;20491;-66
2021/10/23 16:02:54;;;;;;;2.37;2.10;;;13.90;50.00;;;;;;6229074;28;20468;-66
2021/10/23 16:05:58;;;;;;;3.23;2.60;;;13.90;50.80;;;;;;6229408;28;20520;-66
2021/10/23 16:09:01;;;;;;;3.33;2.63;;;13.80;51.00;;;;;;6229675;28;20468;-65